createdAt,value
2023-03-19T00:00:28.295Z,15.59
2023-03-19T00:02:55.242Z,15.50
2023-03-19T00:05:22.642Z,15.43
2023-03-19T00:07:49.322Z,15.39
2023-03-19T00:10:16.099Z,15.26
2023-03-19T00:12:42.989Z,15.27
2023-03-19T00:15:14.791Z,15.26
2023-03-19T00:17:44.690Z,15.30
2023-03-19T00:20:12.992Z,15.28
2023-03-19T00:22:40.485Z,15.22
2023-03-19T00:25:08.681Z,15.17
2023-03-19T00:27:37.397Z,15.15
2023-03-19T00:30:06.567Z,15.15
2023-03-19T00:32:34.155Z,15.11
2023-03-19T00:35:01.339Z,15.00
2023-03-19T00:37:28.610Z,14.91
2023-03-19T00:39:56.292Z,14.95
2023-03-19T00:42:23.469Z,15.04
2023-03-19T00:44:51.138Z,15.09
2023-03-19T00:47:18.161Z,15.18
2023-03-19T00:49:45.499Z,15.20
2023-03-19T00:52:12.286Z,15.16
2023-03-19T00:54:40.690Z,14.98
2023-03-19T00:57:08.558Z,14.94
2023-03-19T00:59:35.552Z,14.94
2023-03-19T01:02:03.011Z,14.94
2023-03-19T01:04:29.758Z,14.93
2023-03-19T01:09:26.782Z,15.02
2023-03-19T01:11:53.905Z,15.12
2023-03-19T01:14:21.331Z,15.23
2023-03-19T01:16:48.514Z,15.25
2023-03-19T01:19:16.541Z,15.14
2023-03-19T01:21:46.466Z,15.00
2023-03-19T01:24:17.495Z,14.93
2023-03-19T01:26:46.452Z,14.90
2023-03-19T01:29:26.025Z,14.96
2023-03-19T01:31:54.861Z,14.98
2023-03-19T01:34:47.047Z,14.84
2023-03-19T01:37:17.639Z,14.75
2023-03-19T01:39:45.546Z,14.64
2023-03-19T01:42:14.877Z,14.70
2023-03-19T01:44:51.327Z,14.78
2023-03-19T01:47:41.892Z,14.91
2023-03-19T01:50:44.313Z,14.97
2023-03-19T01:53:36.814Z,14.98
2023-03-19T01:56:27.562Z,14.94
2023-03-19T01:59:33.260Z,14.93
2023-03-19T02:02:31.223Z,14.88
2023-03-19T02:05:12.404Z,14.81
2023-03-19T02:07:42.701Z,14.73
2023-03-19T02:10:21.173Z,14.71
2023-03-19T02:12:49.274Z,14.71
2023-03-19T02:15:16.806Z,14.72
2023-03-19T02:17:52.667Z,14.66
2023-03-19T02:20:35.704Z,14.57
2023-03-19T02:23:17.629Z,14.49
2023-03-19T02:25:47.998Z,14.47
2023-03-19T02:28:19.341Z,14.51
2023-03-19T02:30:49.067Z,14.59
2023-03-19T02:33:20.888Z,14.64
2023-03-19T02:35:55.612Z,14.67
2023-03-19T02:38:28.369Z,14.65
2023-03-19T02:41:04.828Z,14.64
2023-03-19T02:43:34.433Z,14.72
2023-03-19T02:46:03.458Z,14.79
2023-03-19T02:48:31.800Z,14.81
2023-03-19T02:50:59.981Z,14.82
2023-03-19T02:53:27.446Z,14.84
2023-03-19T02:55:57.934Z,14.85
2023-03-19T02:58:32.773Z,14.82
2023-03-19T03:01:07.598Z,14.84
2023-03-19T03:03:38.028Z,14.84
2023-03-19T03:06:16.951Z,14.85
2023-03-19T03:08:44.833Z,14.82
2023-03-19T03:11:12.137Z,14.67
2023-03-19T03:13:42.229Z,14.50
2023-03-19T03:16:10.102Z,14.46
2023-03-19T03:18:37.851Z,14.46
2023-03-19T03:21:05.238Z,14.41
2023-03-19T03:23:33.159Z,14.44
2023-03-19T03:26:00.208Z,14.55
2023-03-19T03:28:30.175Z,14.65
2023-03-19T03:31:09.752Z,14.63
2023-03-19T03:33:42.964Z,14.60
2023-03-19T03:36:10.830Z,14.63
2023-03-19T03:38:41.438Z,14.72
2023-03-19T03:41:13.866Z,14.75
2023-03-19T03:43:41.217Z,14.78
2023-03-19T03:46:08.831Z,14.75
2023-03-19T03:48:36.558Z,14.75
2023-03-19T03:51:04.529Z,14.73
2023-03-19T03:53:33.156Z,14.57
2023-03-19T03:56:02.662Z,14.38
2023-03-19T03:58:34.733Z,14.29
2023-03-19T04:01:02.030Z,14.24
2023-03-19T04:03:31.976Z,14.28
2023-03-19T04:05:58.957Z,14.28
2023-03-19T04:08:26.593Z,14.19
2023-03-19T04:10:53.647Z,14.21
2023-03-19T04:13:21.036Z,14.32
2023-03-19T04:15:48.680Z,14.37
2023-03-19T04:18:16.620Z,14.39
2023-03-19T04:20:43.603Z,14.45
2023-03-19T04:23:11.165Z,14.49
2023-03-19T04:25:41.667Z,14.46
2023-03-19T04:28:12.518Z,14.49
2023-03-19T04:30:39.685Z,14.51
2023-03-19T04:33:07.320Z,14.55
2023-03-19T04:35:34.376Z,14.47
2023-03-19T04:38:01.529Z,14.46
2023-03-19T04:40:28.834Z,14.45
2023-03-19T04:42:56.448Z,14.34
2023-03-19T04:45:32.352Z,14.34
2023-03-19T04:48:00.142Z,14.27
2023-03-19T04:50:28.216Z,14.18
2023-03-19T04:52:56.137Z,14.22
2023-03-19T04:55:24.723Z,14.25
2023-03-19T04:58:01.367Z,14.22
2023-03-19T05:00:30.899Z,14.11
2023-03-19T05:03:02.022Z,14.10
2023-03-19T05:05:31.504Z,14.21
2023-03-19T05:08:02.162Z,14.25
2023-03-19T05:10:34.309Z,14.23
2023-03-19T05:13:02.317Z,14.23
2023-03-19T05:15:30.492Z,14.22
2023-03-19T05:18:02.052Z,14.26
2023-03-19T05:20:38.093Z,14.24
2023-03-19T05:23:12.096Z,14.11
2023-03-19T05:25:47.781Z,14.15
2023-03-19T05:28:20.537Z,14.17
2023-03-19T05:30:52.603Z,14.16
2023-03-19T05:33:28.024Z,14.20
2023-03-19T05:35:57.806Z,14.26
2023-03-19T05:38:34.823Z,14.30
2023-03-19T05:41:08.227Z,14.34
2023-03-19T05:43:54.371Z,14.34
2023-03-19T05:46:42.348Z,14.33
2023-03-19T05:49:10.664Z,14.31
2023-03-19T05:51:40.578Z,14.33
2023-03-19T05:54:10.565Z,14.35
2023-03-19T05:56:58.038Z,14.37
2023-03-19T05:59:57.992Z,14.31
2023-03-19T06:02:39.459Z,14.33
2023-03-19T06:05:26.417Z,14.28
2023-03-19T06:07:57.666Z,14.30
2023-03-19T06:10:35.947Z,14.37
2023-03-19T06:13:07.803Z,14.43
2023-03-19T06:15:58.266Z,14.38
2023-03-19T06:18:32.323Z,14.30
2023-03-19T06:21:03.818Z,14.31
2023-03-19T06:23:31.127Z,14.32
2023-03-19T06:25:59.893Z,14.31
2023-03-19T06:28:30.835Z,14.33
2023-03-19T06:30:57.945Z,14.39
2023-03-19T06:33:47.875Z,14.53
2023-03-19T06:36:15.342Z,14.59
2023-03-19T06:38:43.011Z,14.46
2023-03-19T06:41:16.613Z,14.48
2023-03-19T06:43:44.105Z,14.60
2023-03-19T06:46:11.927Z,14.70
2023-03-19T06:48:39.094Z,14.58
2023-03-19T06:51:07.028Z,14.55
2023-03-19T06:53:35.021Z,14.50
2023-03-19T06:56:01.935Z,14.58
2023-03-19T06:58:28.761Z,14.64
2023-03-19T07:00:56.963Z,14.78
2023-03-19T07:03:24.498Z,14.93
2023-03-19T07:05:52.871Z,15.06
2023-03-19T07:08:20.220Z,15.11
2023-03-19T07:10:47.232Z,15.27
2023-03-19T07:13:14.655Z,15.42
2023-03-19T07:15:44.968Z,15.61
2023-03-19T07:18:12.542Z,15.79
2023-03-19T07:20:39.607Z,15.90
2023-03-19T07:23:09.724Z,15.90
2023-03-19T07:25:39.410Z,15.91
2023-03-19T07:28:07.165Z,15.75
2023-03-19T07:30:38.661Z,15.78
2023-03-19T07:33:08.112Z,15.76
2023-03-19T07:35:35.788Z,15.70
2023-03-19T07:38:02.971Z,15.59
2023-03-19T07:40:30.230Z,15.57
2023-03-19T07:42:58.918Z,15.55
2023-03-19T07:45:26.030Z,15.56
2023-03-19T07:47:53.426Z,15.49
2023-03-19T07:50:20.734Z,15.51
2023-03-19T07:52:48.359Z,15.47
2023-03-19T07:55:18.601Z,15.39
2023-03-19T07:57:45.573Z,15.41
2023-03-19T08:00:13.135Z,15.49
2023-03-19T08:02:40.618Z,15.57
2023-03-19T08:05:08.084Z,15.76
2023-03-19T08:07:35.373Z,16.03
2023-03-19T08:10:04.102Z,16.24
2023-03-19T08:12:32.238Z,16.52
2023-03-19T08:14:59.442Z,16.82
2023-03-19T08:17:27.807Z,17.07
2023-03-19T08:19:55.100Z,17.25
2023-03-19T08:22:22.140Z,17.33
2023-03-19T08:24:48.859Z,17.51
2023-03-19T08:27:16.101Z,17.73
2023-03-19T08:29:43.276Z,17.90
2023-03-19T08:32:10.333Z,18.03
2023-03-19T08:34:37.333Z,18.32
2023-03-19T08:37:04.596Z,18.62
2023-03-19T08:39:31.722Z,18.81
2023-03-19T08:41:58.536Z,19.03
2023-03-19T08:44:26.012Z,19.20
2023-03-19T08:46:53.333Z,19.37
2023-03-19T08:49:20.252Z,19.54
2023-03-19T08:51:47.214Z,19.76
2023-03-19T08:54:14.440Z,19.97
2023-03-19T08:56:41.736Z,20.05
2023-03-19T08:59:08.871Z,20.02
2023-03-19T09:01:36.810Z,20.11
2023-03-19T09:04:04.181Z,20.08
2023-03-19T09:06:31.300Z,19.94
2023-03-19T09:08:58.203Z,19.92
2023-03-19T09:11:25.065Z,20.05
2023-03-19T09:13:52.206Z,20.12
2023-03-19T09:16:19.157Z,20.03
2023-03-19T09:18:46.242Z,19.91
2023-03-19T09:21:13.270Z,19.95
2023-03-19T09:23:40.521Z,20.04
2023-03-19T09:26:09.980Z,20.18
2023-03-19T09:28:38.149Z,20.31
2023-03-19T09:31:07.508Z,20.46
2023-03-19T09:33:34.399Z,20.63
2023-03-19T09:36:05.293Z,20.43
2023-03-19T09:38:32.507Z,20.54
2023-03-19T09:41:11.633Z,21.12
2023-03-19T09:44:13.106Z,22.44
2023-03-19T09:47:03.308Z,23.75
2023-03-19T09:49:34.074Z,24.08
2023-03-19T09:52:20.500Z,24.02
2023-03-19T09:54:53.272Z,23.79
2023-03-19T09:57:20.993Z,23.69
2023-03-19T09:59:48.381Z,24.04
2023-03-19T10:02:33.233Z,25.41
2023-03-19T10:05:18.738Z,29.80
2023-03-19T10:08:17.222Z,34.08
2023-03-19T10:11:29.754Z,36.48
2023-03-19T10:14:36.186Z,37.61
2023-03-19T10:17:07.399Z,38.87
2023-03-19T10:19:43.648Z,39.38
2023-03-19T10:22:22.443Z,37.86
2023-03-19T10:24:50.782Z,36.72
2023-03-19T10:27:20.590Z,35.44
2023-03-19T10:29:51.279Z,36.23
2023-03-19T10:32:21.323Z,37.03
2023-03-19T10:34:51.039Z,38.09
2023-03-19T10:37:22.320Z,38.79
2023-03-19T10:39:51.517Z,39.72
2023-03-19T10:42:46.956Z,39.93
2023-03-19T10:45:38.957Z,39.33
2023-03-19T10:48:12.177Z,40.36
2023-03-19T10:50:46.053Z,41.17
2023-03-19T10:53:15.776Z,38.03
2023-03-19T10:56:07.592Z,36.78
2023-03-19T10:58:38.202Z,36.42
2023-03-19T11:01:11.206Z,35.02
2023-03-19T11:03:51.047Z,32.74
2023-03-19T11:06:18.389Z,31.56
2023-03-19T11:08:59.072Z,30.80
2023-03-19T11:11:58.093Z,30.71
2023-03-19T11:14:32.145Z,29.63
2023-03-19T11:17:07.144Z,28.81
2023-03-19T11:19:41.224Z,29.49
2023-03-19T11:22:23.020Z,29.27
2023-03-19T11:24:54.394Z,28.06
2023-03-19T11:27:35.060Z,26.95
2023-03-19T11:30:13.057Z,25.76
2023-03-19T11:32:58.391Z,24.83
2023-03-19T11:35:51.024Z,24.39
2023-03-19T11:38:42.386Z,24.29
2023-03-19T11:41:18.607Z,24.20
2023-03-19T11:44:31.625Z,23.89
2023-03-19T11:47:26.233Z,23.52
2023-03-19T11:50:05.864Z,23.29
2023-03-19T11:52:48.860Z,23.19
2023-03-19T11:55:28.117Z,22.84
2023-03-19T11:58:30.758Z,22.68
2023-03-19T12:01:02.140Z,22.55
2023-03-19T12:03:48.470Z,22.26
2023-03-19T12:06:57.265Z,22.29
2023-03-19T12:09:27.224Z,22.35
2023-03-19T12:12:07.753Z,22.34
2023-03-19T12:15:08.756Z,22.26
2023-03-19T12:17:59.429Z,22.17
2023-03-19T12:20:55.919Z,22.35
2023-03-19T12:23:58.047Z,22.71
2023-03-19T12:27:15.894Z,23.07
2023-03-19T12:30:14.864Z,23.36
2023-03-19T12:33:07.644Z,23.18
2023-03-19T12:35:36.800Z,22.83
2023-03-19T12:38:18.007Z,22.61
2023-03-19T12:40:50.444Z,22.35
2023-03-19T12:43:25.576Z,22.00
2023-03-19T12:46:03.533Z,21.58
2023-03-19T12:48:44.599Z,21.25
2023-03-19T12:51:16.072Z,20.86
2023-03-19T12:54:06.193Z,20.74
2023-03-19T12:56:49.636Z,20.48
2023-03-19T12:59:51.903Z,20.36
2023-03-19T13:02:52.183Z,20.20
2023-03-19T13:05:36.434Z,19.97
2023-03-19T13:08:51.291Z,19.69
2023-03-19T13:11:28.655Z,19.38
2023-03-19T13:14:02.214Z,19.12
2023-03-19T13:16:57.145Z,18.97
2023-03-19T13:19:42.987Z,18.89
2023-03-19T13:22:42.898Z,18.82
2023-03-19T13:29:56.773Z,18.65
2023-03-19T13:32:27.416Z,18.88
2023-03-19T13:35:39.878Z,19.04
2023-03-19T13:38:36.996Z,19.14
2023-03-19T13:41:04.536Z,19.24
2023-03-19T13:43:37.405Z,19.37
2023-03-19T13:46:13.465Z,19.46
2023-03-19T13:48:46.343Z,19.30
2023-03-19T13:51:12.911Z,19.06
2023-03-19T13:53:54.670Z,18.93
2023-03-19T13:56:29.868Z,18.84
2023-03-19T13:59:15.599Z,18.78
2023-03-19T14:01:47.427Z,18.74
2023-03-19T14:04:19.787Z,18.73
2023-03-19T14:06:59.210Z,18.73
2023-03-19T14:09:45.859Z,18.63
2023-03-19T14:12:16.153Z,18.57
2023-03-19T14:14:57.210Z,18.60
2023-03-19T14:17:51.707Z,18.63
2023-03-19T14:20:24.036Z,18.62
2023-03-19T14:22:58.312Z,18.69
2023-03-19T14:25:30.941Z,18.79
2023-03-19T14:28:02.235Z,19.03
2023-03-19T14:30:45.521Z,19.38
2023-03-19T14:33:26.503Z,19.68
2023-03-19T14:35:53.893Z,19.95
2023-03-19T14:38:32.352Z,20.12
2023-03-19T14:41:02.457Z,20.16
2023-03-19T14:43:41.770Z,20.22
2023-03-19T14:46:37.618Z,20.16
2023-03-19T14:49:44.424Z,19.74
2023-03-19T14:52:25.489Z,19.75
2023-03-19T14:55:03.336Z,19.96
2023-03-19T14:57:33.302Z,20.04
2023-03-19T15:00:03.038Z,20.07
2023-03-19T15:02:40.351Z,19.83
2023-03-19T15:05:09.872Z,19.62
2023-03-19T15:07:44.310Z,19.28
2023-03-19T15:10:19.004Z,19.25
2023-03-19T15:13:01.333Z,19.38
2023-03-19T15:15:37.923Z,19.60
2023-03-19T15:18:09.843Z,19.98
2023-03-19T15:20:48.402Z,20.11
2023-03-19T15:23:27.444Z,19.94
2023-03-19T15:25:58.211Z,20.06
2023-03-19T15:28:28.215Z,20.22
2023-03-19T15:31:12.523Z,20.02
2023-03-19T15:33:46.444Z,19.85
2023-03-19T15:36:27.597Z,19.95
2023-03-19T15:39:10.941Z,20.10
2023-03-19T15:41:44.618Z,20.18
2023-03-19T15:44:18.648Z,20.14
2023-03-19T15:46:47.109Z,19.92
2023-03-19T15:49:21.161Z,19.99
2023-03-19T15:51:53.371Z,19.99
2023-03-19T15:54:21.342Z,19.89
2023-03-19T15:56:53.216Z,19.80
2023-03-19T15:59:25.092Z,19.66
2023-03-19T16:01:51.908Z,19.61
2023-03-19T16:04:23.383Z,19.27
2023-03-19T16:06:52.346Z,18.90
2023-03-19T16:09:48.622Z,18.67
2023-03-19T16:12:41.417Z,18.40
2023-03-19T16:15:34.051Z,18.28
2023-03-19T16:18:19.436Z,18.29
2023-03-19T16:21:07.660Z,18.14
2023-03-19T16:23:45.914Z,17.98
2023-03-19T16:26:18.644Z,17.87
2023-03-19T16:28:52.408Z,17.68
2023-03-19T16:31:22.384Z,17.66
2023-03-19T16:33:53.329Z,17.67
2023-03-19T16:36:20.935Z,17.56
2023-03-19T16:39:16.455Z,17.53
2023-03-19T16:41:45.994Z,17.38
2023-03-19T16:44:17.176Z,17.20
2023-03-19T16:46:44.972Z,17.12
2023-03-19T16:49:11.607Z,17.10
2023-03-19T16:51:39.354Z,17.07
2023-03-19T16:54:06.474Z,17.12
2023-03-19T16:56:33.661Z,17.11
2023-03-19T16:59:03.393Z,17.08
2023-03-19T17:01:31.153Z,17.06
2023-03-19T17:03:58.938Z,17.00
2023-03-19T17:06:29.450Z,16.93
2023-03-19T17:08:56.119Z,16.71
2023-03-19T17:11:27.760Z,16.60
2023-03-19T17:14:06.379Z,16.56
2023-03-19T17:16:33.975Z,16.56
2023-03-19T17:19:01.147Z,16.59
2023-03-19T17:21:31.500Z,16.64
2023-03-19T17:24:02.318Z,16.60
2023-03-19T17:26:29.241Z,16.48
2023-03-19T17:28:57.017Z,16.47
2023-03-19T17:31:25.477Z,16.51
2023-03-19T17:33:57.026Z,16.67
2023-03-19T17:36:23.813Z,16.79
2023-03-19T17:38:50.640Z,16.90
2023-03-19T17:41:19.956Z,16.94
2023-03-19T17:43:47.878Z,16.99
2023-03-19T17:46:23.562Z,17.03
2023-03-19T17:48:51.390Z,17.00
2023-03-19T17:51:18.999Z,16.92
2023-03-19T17:53:51.515Z,16.89
2023-03-19T17:56:21.413Z,16.80
2023-03-19T17:58:50.444Z,16.71
2023-03-19T18:01:23.517Z,16.59
2023-03-19T18:03:52.084Z,16.49
2023-03-19T18:06:21.090Z,16.41
2023-03-19T18:08:49.079Z,16.33
2023-03-19T18:11:16.292Z,16.32
2023-03-19T18:13:44.044Z,16.23
2023-03-19T18:16:25.722Z,16.15
2023-03-19T18:18:52.927Z,16.05
2023-03-19T18:21:19.777Z,16.00
2023-03-19T18:23:46.914Z,16.04
2023-03-19T18:26:14.287Z,16.02
2023-03-19T18:28:41.300Z,15.94
2023-03-19T18:31:23.030Z,15.82
2023-03-19T18:33:56.960Z,15.74
2023-03-19T18:36:27.995Z,15.69
2023-03-19T18:38:55.531Z,15.65
2023-03-19T18:41:24.747Z,15.59
2023-03-19T18:44:06.634Z,15.57
2023-03-19T18:46:39.097Z,15.57
2023-03-19T18:49:15.343Z,15.52
2023-03-19T18:51:58.765Z,15.41
2023-03-19T18:54:28.143Z,15.28
2023-03-19T18:56:57.285Z,15.19
2023-03-19T18:59:32.180Z,15.09
2023-03-19T19:02:00.952Z,15.07
2023-03-19T19:04:30.471Z,15.01
2023-03-19T19:06:57.341Z,14.92
2023-03-19T19:09:27.653Z,14.88
2023-03-19T19:12:01.013Z,14.88
2023-03-19T19:14:28.211Z,14.75
2023-03-19T19:16:59.177Z,14.71
2023-03-19T19:19:29.346Z,14.70
2023-03-19T19:21:56.349Z,14.67
2023-03-19T19:24:23.147Z,14.63
2023-03-19T19:26:54.129Z,14.58
2023-03-19T19:29:27.025Z,14.56
2023-03-19T19:31:54.517Z,14.52
2023-03-19T19:34:22.804Z,14.54
2023-03-19T19:36:51.091Z,14.51
2023-03-19T19:39:19.860Z,14.45
2023-03-19T19:41:48.187Z,14.41
2023-03-19T19:44:20.282Z,14.29
2023-03-19T19:46:47.271Z,14.38
2023-03-19T19:49:18.718Z,14.34
2023-03-19T19:51:45.562Z,14.26
2023-03-19T19:54:12.579Z,14.21
2023-03-19T19:56:40.683Z,14.21
2023-03-19T19:59:08.167Z,14.18
2023-03-19T20:01:35.234Z,14.19
2023-03-19T20:04:04.062Z,14.20
2023-03-19T20:06:31.023Z,14.20
2023-03-19T20:08:57.713Z,14.17
2023-03-19T20:11:25.641Z,14.12
2023-03-19T20:13:54.801Z,14.08
2023-03-19T20:16:24.077Z,13.99
2023-03-19T20:18:53.775Z,13.95
2023-03-19T20:21:21.257Z,13.93
2023-03-19T20:23:53.470Z,13.87
2023-03-19T20:26:23.854Z,13.88
2023-03-19T20:28:51.571Z,13.89
2023-03-19T20:31:26.449Z,13.90
2023-03-19T20:33:53.200Z,13.86
2023-03-19T20:36:19.925Z,13.84
2023-03-19T20:38:46.639Z,13.85
2023-03-19T20:41:23.046Z,13.90
2023-03-19T20:43:50.913Z,13.87
2023-03-19T20:46:20.493Z,13.88
2023-03-19T20:48:48.384Z,13.77
2023-03-19T20:51:21.708Z,13.70
2023-03-19T20:53:52.496Z,13.67
2023-03-19T20:56:22.616Z,13.67
2023-03-19T20:58:49.657Z,13.66
2023-03-19T21:01:17.794Z,13.65
2023-03-19T21:03:44.726Z,13.62
2023-03-19T21:06:18.097Z,13.62
2023-03-19T21:08:49.172Z,13.65
2023-03-19T21:11:24.528Z,13.62
2023-03-19T21:13:53.148Z,13.58
2023-03-19T21:16:25.566Z,13.62
2023-03-19T21:18:53.992Z,13.65
2023-03-19T21:21:35.719Z,13.64
2023-03-19T21:24:13.295Z,13.55
2023-03-19T21:26:42.590Z,13.47
2023-03-19T21:29:19.414Z,13.44
2023-03-19T21:31:50.561Z,13.48
2023-03-19T21:34:17.887Z,13.54
2023-03-19T21:36:44.839Z,13.54
2023-03-19T21:39:12.022Z,13.51
2023-03-19T21:41:41.320Z,13.46
2023-03-19T21:44:16.279Z,13.41
2023-03-19T21:46:46.926Z,13.37
2023-03-19T21:49:14.657Z,13.33
2023-03-19T21:51:43.912Z,13.32
2023-03-19T21:54:11.431Z,13.34
2023-03-19T21:56:42.901Z,13.40
2023-03-19T21:59:18.942Z,13.51
2023-03-19T22:01:46.565Z,13.57
2023-03-19T22:04:13.335Z,13.69
2023-03-19T22:06:40.408Z,13.79
2023-03-19T22:09:07.461Z,13.88
2023-03-19T22:11:36.638Z,13.94
2023-03-19T22:14:11.188Z,13.99
2023-03-19T22:16:38.288Z,14.03
2023-03-19T22:19:05.597Z,14.07
2023-03-19T22:21:33.954Z,13.98
2023-03-19T22:24:00.757Z,13.92
2023-03-19T22:26:27.602Z,13.86
2023-03-19T22:28:56.083Z,13.89
2023-03-19T22:31:23.771Z,13.93
2023-03-19T22:33:50.745Z,13.98
2023-03-19T22:36:17.773Z,14.05
2023-03-19T22:38:45.028Z,14.07
2023-03-19T22:41:17.417Z,14.12
2023-03-19T22:43:46.367Z,14.15
2023-03-19T22:46:16.983Z,14.19
2023-03-19T22:48:47.900Z,14.17
2023-03-19T22:51:17.354Z,14.13
2023-03-19T22:53:44.656Z,14.15
2023-03-19T22:56:12.418Z,14.16
2023-03-19T22:58:39.036Z,14.14
2023-03-19T23:01:21.262Z,14.12
2023-03-19T23:03:50.156Z,14.10
2023-03-19T23:06:30.656Z,14.07
2023-03-19T23:08:57.923Z,14.07
2023-03-19T23:11:24.673Z,13.94
2023-03-19T23:13:51.818Z,13.74
2023-03-19T23:16:24.648Z,13.60
2023-03-19T23:18:51.956Z,13.55
2023-03-19T23:21:20.078Z,13.54
2023-03-19T23:23:46.885Z,13.55
2023-03-19T23:26:37.158Z,13.62
2023-03-19T23:29:06.114Z,13.62
2023-03-19T23:31:34.727Z,13.71
2023-03-19T23:34:01.630Z,13.65
2023-03-19T23:36:28.450Z,13.46
2023-03-19T23:38:56.487Z,13.40
2023-03-19T23:41:26.808Z,13.39
2023-03-19T23:43:54.922Z,13.45
2023-03-19T23:46:22.180Z,13.52
2023-03-19T23:48:53.236Z,13.66
2023-03-19T23:51:21.314Z,13.67
2023-03-19T23:53:48.292Z,13.72
2023-03-19T23:56:27.649Z,13.78
